Williamsport, PA

9:22 PM EDT on September 30, 2014 (GMT -0400)
KPAWILLI7 | Change Station
CLOSE
Current Station
Personal Weather Station
Location: Newberry Area,Williamsport (Lycoming County), PA
Elevation: 529 ft
Nearby Weather Stations

Elev 529 ft 41.23 °N, 77.05 °W | Updated 87 days ago

Thunderstorm
Thunderstorm
65 °F
Feels Like 65 °F
N
3
Wind Variable Wind from ESE
Gusts 7 mph

Today
High -- | Low -- °F
--% Chance of Precip.
Yesterday
High -- | Low -- °F
Precip. -- in
7:03 AM 6:51 PM
Waxing Crescent, 42% visible
Pressure 29.91 in
Visibility 10.0 miles
Clouds Few 6000 ft
Dew Point 60 °F
Humidity 81%
Rainfall 0.00 in
Snow Depth Not available.
UV 0 out of 12
Pollen 2.40 out of 12
Air Quality Not available.
Flu Activity Not available.
METAR KIPT 010054Z 10004KT 10SM FEW060 18/15 A2991 RMK AO2 LTG DSNT S SLP126 T01780150

More Conditions Fewer Conditions

Pressure 29.91 in
Visibility 10.0 miles
Clouds Few 6000 ft
Dew Point 60 °F
Humidity 81%
Rainfall 0.00 in
Snow Depth Not available.
UV 0 out of 12
Pollen 2.40 out of 12
Air Quality Not available.
Flu Activity Not available.
METAR KIPT 010054Z 10004KT 10SM FEW060 18/15 A2991 RMK AO2 LTG DSNT S SLP126 T01780150

More Conditions Fewer Conditions

10-Day Weather Forecast

Almanac

Astronomy

Sep. 30, 2014 Rise Set
Actual Time 7:03 AM EDT 6:51 PM EDT
Civil Twilight 6:36 AM EDT 7:19 PM EDT
Nautical Twilight 6:04 AM EDT 7:51 PM EDT
Astronomical Twilight 5:31 AM EDT 8:23 PM EDT
Moon 1:12 PM EDT (9/30) 11:17 PM EDT (9/30)
Length of Visible Light 12h 42m
Length of Day
11h 47m
Tomorrow will be 2m 43s shorter.
Waxing Crescent, 42% of the Moon is Illuminated
Today
Waxing Crescent
Oct 1
First Quarter
Oct 8
Full
Oct 15
Last Quarter
Oct 23
New

Today's Extremes

State Highs State Lows

Community

WunderPhotos

Upload Photos

1,757,815 photos uploaded!

Nearby

Snow Depth

Station Depth Elevation
No new snow has been reported.

Earthquake Activity

City Distance Mag. Time & Date
No recent earthquake activity has been reported nearby.
Minimum magnitude displayed is 2.5.

Coastal Water Temperatures

Place Temperature
No Stations Reporting

Nearby Weather Stations